Time;durP1;ratioP1;P1;durP2;ratioP2;P2;SDS_P1;SDS_P2;PMS_P1;PMS_P2;Temp;Humidity;BMP_temperature;BMP_pressure;BME280_temperature;BME280_humidity;BME280_pressure;Samples;Min_cycle;Max_cycle;Signal;HPM_P1;HPM_P2
2022/10/03 00:00:12;;;;;;;8.77;2.10;;;10.80;99.90;;;;;;5051823;28;20053;-71
2022/10/03 00:02:44;;;;;;;9.32;1.33;;;10.70;99.90;;;;;;5064387;28;20411;-71
2022/10/03 00:05:48;;;;;;;10.00;2.45;;;10.60;99.90;;;;;;5050358;28;20251;-71
2022/10/03 00:08:19;;;;;;;7.78;1.58;;;10.60;99.90;;;;;;5083833;28;20494;-71
2022/10/03 00:11:09;;;;;;;7.50;1.30;;;10.60;99.90;;;;;;5051614;28;20490;-71
2022/10/03 00:13:49;;;;;;;8.35;1.40;;;10.50;99.90;;;;;;5050630;28;20042;-71
2022/10/03 00:16:24;;;;;;;6.70;1.58;;;10.40;99.90;;;;;;5051632;28;20037;-71
2022/10/03 00:19:08;;;;;;;7.03;1.42;;;10.40;99.90;;;;;;5065809;28;20040;-71
2022/10/03 00:21:59;;;;;;;9.57;1.45;;;10.30;99.90;;;;;;5035237;28;20041;-71
2022/10/03 00:24:37;;;;;;;7.50;1.83;;;10.30;99.90;;;;;;5067094;28;20506;-71
2022/10/03 00:27:12;;;;;;;10.00;2.63;;;10.30;99.90;;;;;;5051581;28;20044;-71
2022/10/03 00:29:38;;;;;;;10.18;1.70;;;10.40;99.90;;;;;;5067527;28;20121;-71
2022/10/03 00:32:42;;;;;;;5.40;1.60;;;10.40;99.90;;;;;;5068452;28;20474;-71
2022/10/03 00:35:33;;;;;;;10.07;1.85;;;10.40;99.90;;;;;;5050673;28;20167;-71
2022/10/03 00:38:21;;;;;;;7.97;1.40;;;10.40;99.90;;;;;;5068201;28;20045;-71
2022/10/03 00:41:32;;;;;;;7.55;1.50;;;10.30;99.90;;;;;;5068080;28;20048;-71
2022/10/03 00:44:54;;;;;;;7.47;1.30;;;10.30;99.90;;;;;;5018014;28;20395;-71
2022/10/03 00:47:57;;;;;;;7.70;1.43;;;10.30;99.90;;;;;;5012409;28;20406;-71
2022/10/03 00:51:08;;;;;;;5.63;1.63;;;10.30;99.90;;;;;;5053673;28;20124;-70
2022/10/03 00:53:55;;;;;;;6.43;1.55;;;10.30;99.90;;;;;;5037411;28;20145;-71
2022/10/03 00:56:42;;;;;;;7.30;1.20;;;10.30;99.90;;;;;;5071862;28;20045;-71
2022/10/03 00:59:34;;;;;;;9.10;2.15;;;10.30;99.90;;;;;;5038299;28;20048;-71
2022/10/03 01:02:24;;;;;;;6.95;1.48;;;10.30;99.90;;;;;;5010857;28;20045;-71
2022/10/03 01:05:01;;;;;;;11.23;1.77;;;10.30;99.90;;;;;;5070589;28;20086;-71
2022/10/03 01:08:02;;;;;;;8.52;1.40;;;10.30;99.90;;;;;;5071561;28;20067;-71
2022/10/03 01:10:41;;;;;;;9.82;1.50;;;10.40;99.90;;;;;;5051487;28;20069;-71
2022/10/03 01:13:30;;;;;;;5.85;1.50;;;10.40;99.90;;;;;;5051443;28;20059;-71
2022/10/03 01:16:27;;;;;;;15.73;2.00;;;10.40;99.90;;;;;;5067979;28;20049;-71
2022/10/03 01:19:04;;;;;;;13.90;2.50;;;10.50;99.90;;;;;;5043327;28;20143;-71
2022/10/03 01:21:47;;;;;;;9.00;1.63;;;10.50;99.90;;;;;;5071157;28;20124;-71
2022/10/03 01:24:21;;;;;;;11.15;1.85;;;10.50;99.90;;;;;;5068508;28;20084;-71
2022/10/03 01:26:55;;;;;;;8.77;2.33;;;10.50;99.90;;;;;;5067807;28;20041;-71
2022/10/03 01:32:19;;;;;;;15.18;2.63;;;10.60;99.90;;;;;;5053557;28;20073;-71
2022/10/03 01:34:53;;;;;;;12.38;2.33;;;10.60;99.90;;;;;;5071223;28;20403;-71
2022/10/03 01:37:24;;;;;;;11.40;2.05;;;10.60;99.90;;;;;;5054281;28;20494;-71
2022/10/03 01:39:59;;;;;;;11.38;2.00;;;10.60;99.90;;;;;;5069946;28;20131;-71
2022/10/03 01:42:51;;;;;;;11.27;2.28;;;10.70;99.90;;;;;;5054146;28;20513;-71
2022/10/03 01:45:45;;;;;;;11.35;1.63;;;10.60;99.90;;;;;;5053652;28;20041;-71
2022/10/03 01:48:11;;;;;;;11.32;1.88;;;10.70;99.90;;;;;;5068807;28;20043;-71
2022/10/03 01:51:08;;;;;;;12.30;2.17;;;10.70;99.90;;;;;;5069166;28;20367;-71
2022/10/03 01:53:53;;;;;;;9.38;1.60;;;10.70;99.90;;;;;;5039129;28;20538;-71
2022/10/03 01:56:34;;;;;;;9.25;1.90;;;10.70;99.90;;;;;;5070553;28;20040;-71
2022/10/03 01:59:33;;;;;;;12.60;2.10;;;10.70;99.90;;;;;;5052398;28;20060;-71
2022/10/03 02:02:29;;;;;;;12.90;2.33;;;10.70;99.90;;;;;;5054101;28;20402;-71
2022/10/03 02:05:11;;;;;;;10.10;2.53;;;10.70;99.90;;;;;;5053016;28;20090;-71
2022/10/03 02:07:58;;;;;;;5.25;1.30;;;10.60;99.90;;;;;;5053891;28;20386;-72
2022/10/03 02:10:38;;;;;;;7.53;1.25;;;10.60;99.90;;;;;;5052897;28;20124;-72
2022/10/03 02:13:07;;;;;;;8.73;1.75;;;10.70;99.90;;;;;;5070341;28;20036;-71
2022/10/03 02:16:11;;;;;;;7.60;1.40;;;10.70;99.90;;;;;;5052327;28;20486;-72
2022/10/03 02:18:44;;;;;;;10.15;1.65;;;10.70;99.90;;;;;;5037341;28;20048;-71
2022/10/03 02:21:22;;;;;;;8.60;1.92;;;10.70;99.90;;;;;;5053681;28;20613;-71
2022/10/03 02:24:10;;;;;;;6.95;1.60;;;10.60;99.90;;;;;;5051854;28;20040;-72
2022/10/03 02:26:42;;;;;;;7.53;1.50;;;10.60;99.90;;;;;;5066699;28;20045;-72
2022/10/03 02:29:41;;;;;;;6.57;1.20;;;10.60;99.90;;;;;;5049400;28;20037;-71
2022/10/03 02:32:35;;;;;;;9.05;1.58;;;10.60;99.90;;;;;;5033310;28;20053;-71
2022/10/03 02:35:09;;;;;;;7.30;1.50;;;10.50;99.90;;;;;;5047107;28;20041;-72
2022/10/03 02:37:52;;;;;;;8.68;1.95;;;10.50;99.90;;;;;;5068846;28;20052;-71
2022/10/03 02:41:01;;;;;;;5.45;1.30;;;10.50;99.90;;;;;;5052203;28;20064;-71
2022/10/03 02:43:55;;;;;;;6.40;1.17;;;10.50;99.90;;;;;;5033135;28;20033;-71
2022/10/03 02:46:42;;;;;;;9.82;1.40;;;10.50;99.90;;;;;;5040502;28;20039;-71
2022/10/03 02:49:43;;;;;;;6.97;1.30;;;10.50;99.90;;;;;;5051744;28;20095;-72
2022/10/03 02:52:30;;;;;;;9.13;1.42;;;10.50;99.90;;;;;;5052194;28;20048;-71
2022/10/03 02:55:10;;;;;;;6.30;1.88;;;10.50;99.90;;;;;;5053103;28;20044;-72
2022/10/03 02:58:04;;;;;;;8.10;1.52;;;10.40;99.90;;;;;;5052310;28;20486;-71
2022/10/03 03:00:52;;;;;;;6.75;1.23;;;10.50;99.90;;;;;;5069385;28;20045;-71
2022/10/03 03:03:59;;;;;;;5.18;1.40;;;10.50;99.90;;;;;;5068842;28;20468;-71
2022/10/03 03:07:02;;;;;;;9.85;1.27;;;10.40;99.90;;;;;;5014058;28;20438;-71
2022/10/03 03:09:40;;;;;;;10.30;1.65;;;10.40;99.90;;;;;;5045291;28;20037;-71
2022/10/03 03:12:30;;;;;;;9.63;1.50;;;10.40;99.90;;;;;;5052544;28;20052;-71
2022/10/03 03:15:28;;;;;;;10.02;2.25;;;10.40;99.90;;;;;;5064823;28;20040;-72
2022/10/03 03:18:11;;;;;;;6.30;1.20;;;10.40;99.90;;;;;;5060480;28;20053;-72
2022/10/03 03:20:43;;;;;;;7.45;1.40;;;10.40;99.90;;;;;;5028520;28;20063;-72
2022/10/03 03:23:24;;;;;;;5.50;1.38;;;10.40;99.90;;;;;;5034433;28;20265;-72
2022/10/03 03:26:00;;;;;;;6.97;1.13;;;10.40;99.90;;;;;;5080543;28;20167;-71
2022/10/03 03:28:45;;;;;;;5.95;1.35;;;10.50;99.90;;;;;;5035366;28;20087;-72
2022/10/03 03:31:26;;;;;;;9.02;2.72;;;10.50;99.90;;;;;;5034688;28;20041;-71
2022/10/03 03:34:01;;;;;;;8.07;3.20;;;10.50;99.90;;;;;;5052379;28;20128;-72
2022/10/03 03:36:33;;;;;;;10.20;4.22;;;10.50;99.90;;;;;;5051754;28;20402;-71
2022/10/03 03:39:27;;;;;;;;;;;10.50;99.90;;;;;;5057983;28;20476;-72
2022/10/03 03:42:11;;;;;;;10.52;3.08;;;10.50;99.90;;;;;;5050978;28;19916;-71
2022/10/03 03:44:55;;;;;;;9.77;2.17;;;10.50;99.90;;;;;;5032092;28;20038;-72
2022/10/03 03:48:17;;;;;;;10.52;1.95;;;10.60;99.90;;;;;;5047866;28;20494;-71
2022/10/03 03:51:10;;;;;;;9.70;1.70;;;10.60;99.90;;;;;;4989209;28;20399;-71
2022/10/03 03:53:38;;;;;;;;;;;10.70;99.90;;;;;;4991938;28;20050;-71
2022/10/03 03:56:17;;;;;;;8.30;1.60;;;10.70;99.90;;;;;;5065212;28;19971;-72
2022/10/03 03:58:55;;;;;;;14.00;1.90;;;10.70;99.90;;;;;;5050456;28;20494;-72
2022/10/03 04:02:05;;;;;;;7.93;1.83;;;10.80;99.90;;;;;;5048883;28;20037;-71
2022/10/03 04:04:33;;;;;;;6.40;1.50;;;10.80;99.90;;;;;;5025633;28;20127;-72
2022/10/03 04:07:25;;;;;;;7.43;1.45;;;10.80;99.90;;;;;;5062841;28;20421;-71
2022/10/03 04:10:02;;;;;;;7.90;2.25;;;10.80;99.90;;;;;;5032492;28;20040;-71
2022/10/03 04:12:49;;;;;;;7.93;2.08;;;10.80;99.90;;;;;;5065759;28;20536;-72
2022/10/03 04:15:27;;;;;;;8.10;1.77;;;10.80;99.90;;;;;;5049553;28;20529;-71
2022/10/03 04:18:57;;;;;;;8.80;1.58;;;10.90;99.90;;;;;;5036767;28;20371;-71
2022/10/03 04:22:04;;;;;;;10.00;1.60;;;10.90;99.90;;;;;;5035705;28;20116;-72
2022/10/03 04:24:45;;;;;;;9.80;1.60;;;10.90;99.90;;;;;;5036474;28;20147;-71
2022/10/03 04:27:31;;;;;;;11.13;2.08;;;10.90;99.90;;;;;;5052830;28;20363;-72
2022/10/03 04:30:28;;;;;;;9.35;1.40;;;10.90;99.90;;;;;;5083610;28;20045;-72
2022/10/03 04:33:12;;;;;;;8.13;1.40;;;10.90;99.90;;;;;;5052506;28;20095;-72
2022/10/03 04:35:51;;;;;;;13.95;2.03;;;10.90;99.90;;;;;;5055400;28;20479;-72
2022/10/03 04:39:04;;;;;;;10.67;1.70;;;10.90;99.90;;;;;;5072932;28;20041;-72
2022/10/03 04:41:52;;;;;;;9.93;1.92;;;10.90;99.90;;;;;;5022841;28;20299;-72
2022/10/03 04:45:15;;;;;;;8.18;1.50;;;10.90;99.90;;;;;;5032356;28;20041;-72
2022/10/03 04:47:48;;;;;;;12.23;2.00;;;10.80;99.90;;;;;;5001061;28;20113;-72
2022/10/03 04:50:26;;;;;;;10.88;1.70;;;10.80;99.90;;;;;;4978572;28;20038;-72
2022/10/03 04:52:59;;;;;;;7.53;1.33;;;10.80;99.90;;;;;;5036383;28;20592;-72
2022/10/03 04:55:43;;;;;;;6.80;1.42;;;10.80;99.90;;;;;;5069225;28;20036;-72
2022/10/03 04:58:46;;;;;;;11.10;1.80;;;10.80;99.90;;;;;;5034088;28;20514;-71
2022/10/03 05:01:31;;;;;;;8.25;1.40;;;10.80;99.90;;;;;;5037626;28;20528;-72
2022/10/03 05:03:59;;;;;;;8.23;1.30;;;10.80;99.90;;;;;;5053663;28;20037;-72
2022/10/03 05:06:40;;;;;;;12.35;1.80;;;10.90;99.90;;;;;;5037007;28;20127;-71
2022/10/03 05:09:28;;;;;;;8.07;1.50;;;10.90;99.90;;;;;;5037570;28;20044;-71
2022/10/03 05:11:58;;;;;;;7.80;1.60;;;10.90;99.90;;;;;;5053070;28;20037;-71
2022/10/03 05:14:55;;;;;;;8.23;1.70;;;10.80;99.90;;;;;;5067829;28;20033;-72
2022/10/03 05:17:36;;;;;;;9.35;1.55;;;10.90;99.90;;;;;;5052685;28;20066;-71
2022/10/03 05:20:20;;;;;;;7.20;1.50;;;10.90;99.90;;;;;;5067676;28;20047;-72
2022/10/03 05:23:13;;;;;;;6.90;1.35;;;10.90;99.90;;;;;;5070607;28;20048;-72
2022/10/03 05:26:03;;;;;;;8.25;1.55;;;10.90;99.90;;;;;;5059732;28;20083;-72
2022/10/03 05:28:49;;;;;;;5.63;1.05;;;10.90;99.90;;;;;;5035060;28;20033;-71
2022/10/03 05:31:27;;;;;;;6.15;1.30;;;10.80;99.90;;;;;;5052548;28;20094;-71
2022/10/03 05:34:17;;;;;;;9.35;1.63;;;10.80;99.90;;;;;;5054353;28;20032;-71
2022/10/03 05:37:13;;;;;;;7.30;1.40;;;10.80;99.90;;;;;;5081226;28;20033;-71
2022/10/03 05:40:01;;;;;;;6.18;1.40;;;10.80;99.90;;;;;;5069355;28;20123;-71
2022/10/03 05:42:35;;;;;;;5.45;1.88;;;10.80;99.90;;;;;;5046390;28;20048;-71
2022/10/03 05:45:06;;;;;;;7.57;1.40;;;10.80;99.90;;;;;;5053043;28;20090;-71
2022/10/03 05:47:55;;;;;;;5.55;1.05;;;10.80;99.90;;;;;;5040698;28;20128;-71
2022/10/03 05:50:57;;;;;;;4.70;1.23;;;10.70;99.90;;;;;;5044439;28;20045;-71
2022/10/03 05:53:47;;;;;;;5.73;1.00;;;10.80;99.90;;;;;;5046123;28;20048;-71
2022/10/03 05:56:31;;;;;;;4.22;0.90;;;10.70;99.90;;;;;;5036046;28;20375;-71
2022/10/03 05:59:24;;;;;;;6.75;1.23;;;10.60;99.90;;;;;;5024969;28;20045;-71
2022/10/03 06:02:40;;;;;;;6.85;1.50;;;10.60;99.90;;;;;;5068917;28;20144;-71
2022/10/03 06:05:19;;;;;;;4.72;1.10;;;10.60;99.90;;;;;;5011456;28;20486;-71
2022/10/03 06:08:20;;;;;;;7.22;1.20;;;10.60;99.90;;;;;;5052384;28;20045;-71
2022/10/03 06:10:50;;;;;;;7.43;1.17;;;10.60;99.90;;;;;;5045357;28;20040;-71
2022/10/03 06:13:44;;;;;;;2.97;1.00;;;10.60;99.90;;;;;;5036046;28;20045;-71
2022/10/03 06:16:45;;;;;;;7.05;1.20;;;10.60;99.90;;;;;;5049920;28;20045;-71
2022/10/03 06:19:23;;;;;;;6.90;1.50;;;10.60;99.90;;;;;;5006916;28;20045;-71
2022/10/03 06:22:26;;;;;;;3.33;1.00;;;10.50;99.90;;;;;;5065011;28;20041;-71
2022/10/03 06:25:10;;;;;;;;;;;10.50;99.90;;;;;;5051566;28;20041;-71
2022/10/03 06:28:04;;;;;;;4.63;1.05;;;10.50;99.90;;;;;;5050868;28;19936;-71
2022/10/03 06:30:51;;;;;;;4.10;1.38;;;10.50;99.90;;;;;;5053662;28;21306;-71
2022/10/03 06:33:52;;;;;;;7.22;1.63;;;10.50;99.90;;;;;;5074548;28;20048;-71
2022/10/03 06:36:45;;;;;;;9.27;1.83;;;10.40;99.90;;;;;;5019569;28;20506;-71
2022/10/03 06:39:29;;;;;;;7.63;1.75;;;10.40;99.90;;;;;;5051961;28;20044;-71
2022/10/03 06:42:04;;;;;;;4.22;1.20;;;10.40;99.90;;;;;;5067074;28;20550;-71
2022/10/03 06:44:54;;;;;;;5.28;1.10;;;10.40;99.90;;;;;;5035510;28;20127;-71
2022/10/03 06:47:43;;;;;;;3.53;0.93;;;10.40;99.90;;;;;;5064248;28;20037;-71
2022/10/03 06:50:36;;;;;;;6.10;1.48;;;10.40;99.90;;;;;;5035551;28;20037;-71
2022/10/03 06:53:17;;;;;;;5.68;1.30;;;10.40;99.90;;;;;;5067188;28;20032;-71
2022/10/03 06:55:54;;;;;;;6.10;1.50;;;10.40;99.90;;;;;;5067749;28;20064;-71
2022/10/03 06:58:58;;;;;;;6.30;1.88;;;10.40;99.90;;;;;;5039761;28;20498;-71
2022/10/03 07:02:13;;;;;;;10.27;1.67;;;10.40;99.90;;;;;;5051033;28;20498;-71
2022/10/03 07:04:51;;;;;;;6.45;1.58;;;10.50;99.90;;;;;;5053258;28;20047;-71
2022/10/03 07:07:29;;;;;;;7.80;1.50;;;10.50;99.90;;;;;;5063974;28;20049;-71
2022/10/03 07:10:16;;;;;;;6.50;1.58;;;10.50;99.90;;;;;;5065587;28;20644;-71
2022/10/03 07:12:52;;;;;;;8.02;1.50;;;10.50;99.90;;;;;;5034559;28;20037;-71
2022/10/03 07:15:44;;;;;;;7.68;1.30;;;10.50;99.90;;;;;;5049545;28;20037;-71
2022/10/03 07:18:51;;;;;;;5.47;1.30;;;10.60;99.90;;;;;;5050353;28;20064;-71
2022/10/03 07:21:25;;;;;;;7.78;1.60;;;10.60;99.90;;;;;;5030801;28;20041;-71
2022/10/03 07:24:03;;;;;;;6.65;1.63;;;10.70;99.90;;;;;;5051419;28;20041;-71
2022/10/03 07:27:02;;;;;;;7.90;1.55;;;10.80;99.90;;;;;;5052535;28;20041;-71
2022/10/03 07:30:03;;;;;;;8.20;1.70;;;10.80;99.90;;;;;;5032801;28;20041;-71
2022/10/03 07:33:05;;;;;;;9.48;1.65;;;10.90;99.90;;;;;;5050294;28;20083;-71
2022/10/03 07:39:15;;;;;;;9.52;1.40;;;11.10;99.90;;;;;;5075438;28;20076;-71
2022/10/03 07:42:03;;;;;;;10.85;1.85;;;11.20;99.90;;;;;;5067787;28;20053;-71
2022/10/03 07:44:58;;;;;;;6.63;1.40;;;11.30;99.90;;;;;;5049969;28;20044;-71
2022/10/03 07:47:56;;;;;;;10.05;1.70;;;11.40;99.90;;;;;;5044306;28;20052;-72
2022/10/03 07:51:01;;;;;;;12.85;1.45;;;11.50;99.90;;;;;;5082309;28;20071;-72
2022/10/03 07:53:59;;;;;;;6.38;1.08;;;11.60;99.90;;;;;;5012643;28;20525;-72
2022/10/03 07:56:55;;;;;;;9.30;1.58;;;11.60;99.90;;;;;;5050550;28;20037;-72
2022/10/03 07:59:46;;;;;;;8.55;1.70;;;11.70;99.90;;;;;;5055066;28;20115;-72
2022/10/03 08:03:02;;;;;;;9.70;1.40;;;11.80;99.90;;;;;;5081164;28;20037;-72
2022/10/03 08:06:00;;;;;;;9.27;1.88;;;11.90;99.90;;;;;;5014932;28;20071;-71
2022/10/03 08:08:39;;;;;;;10.40;1.45;;;12.00;99.90;;;;;;5031937;28;20049;-71
2022/10/03 08:11:38;;;;;;;10.80;1.60;;;12.00;99.90;;;;;;5046719;28;20509;-72
2022/10/03 08:14:38;;;;;;;13.95;2.08;;;12.10;99.90;;;;;;5050431;28;20510;-71
2022/10/03 08:17:37;;;;;;;7.80;1.60;;;12.20;99.90;;;;;;5034547;28;20053;-76
2022/10/03 08:20:37;;;;;;;9.52;1.60;;;12.40;99.90;;;;;;5050724;28;20041;-73
2022/10/03 08:23:23;;;;;;;9.27;1.35;;;12.50;99.90;;;;;;5050638;28;20406;-72
2022/10/03 08:26:00;;;;;;;10.00;1.75;;;12.60;99.90;;;;;;5049342;28;20045;-73
2022/10/03 08:28:43;;;;;;;8.65;1.55;;;12.60;99.90;;;;;;5074868;28;20095;-73
2022/10/03 08:31:29;;;;;;;11.07;1.40;;;12.80;99.90;;;;;;5057480;28;20037;-72
2022/10/03 08:34:07;;;;;;;8.85;1.13;;;12.90;99.90;;;;;;5034299;28;20033;-73
2022/10/03 08:37:11;;;;;;;14.52;1.88;;;13.00;99.90;;;;;;5067393;28;20087;-73
2022/10/03 08:39:36;;;;;;;9.55;1.30;;;13.10;99.90;;;;;;5065506;28;20441;-73
2022/10/03 08:42:24;;;;;;;8.50;1.10;;;13.30;99.90;;;;;;5055029;28;20136;-73
2022/10/03 08:45:11;;;;;;;6.53;1.23;;;13.30;99.90;;;;;;5037176;28;20052;-73
2022/10/03 08:47:49;;;;;;;11.75;1.90;;;13.50;99.90;;;;;;5050431;28;20048;-73
2022/10/03 08:50:34;;;;;;;7.00;1.08;;;13.60;99.90;;;;;;5066703;28;20045;-73
2022/10/03 08:53:35;;;;;;;10.55;1.80;;;13.70;99.90;;;;;;5031410;28;20064;-73
2022/10/03 08:56:23;;;;;;;8.90;2.10;;;13.80;99.90;;;;;;5053068;28;20040;-73
2022/10/03 08:59:03;;;;;;;9.93;1.30;;;13.90;99.90;;;;;;5055440;28;20106;-73
2022/10/03 09:01:47;;;;;;;7.03;1.30;;;14.00;99.90;;;;;;5050407;28;20049;-73
2022/10/03 09:04:27;;;;;;;19.27;4.38;;;14.10;99.90;;;;;;5050133;28;20048;-73
2022/10/03 09:06:56;;;;;;;13.18;2.63;;;14.20;99.90;;;;;;5051239;28;20052;-73
2022/10/03 09:09:55;;;;;;;10.57;2.85;;;14.40;99.90;;;;;;5070210;28;20041;-74
2022/10/03 09:12:41;;;;;;;8.18;1.27;;;14.40;99.90;;;;;;5034867;28;20038;-73
2022/10/03 09:15:19;;;;;;;7.50;1.20;;;14.60;99.90;;;;;;5054325;28;20494;-74
2022/10/03 09:18:17;;;;;;;9.27;1.27;;;14.70;99.90;;;;;;5054694;28;20037;-74
2022/10/03 09:20:42;;;;;;;9.13;1.10;;;14.90;99.90;;;;;;5052501;28;20119;-73
2022/10/03 09:23:20;;;;;;;8.43;1.90;;;14.90;99.90;;;;;;5051197;28;20112;-73
2022/10/03 09:25:51;;;;;;;9.90;1.20;;;15.00;99.90;;;;;;5047458;28;20045;-73
2022/10/03 09:28:40;;;;;;;9.77;1.65;;;15.00;99.90;;;;;;5046886;28;20037;-73
2022/10/03 09:31:40;;;;;;;7.50;1.10;;;15.10;99.90;;;;;;5053940;28;20041;-73
2022/10/03 09:34:09;;;;;;;11.73;1.35;;;15.10;99.90;;;;;;5033708;28;20037;-74
2022/10/03 09:36:53;;;;;;;9.38;1.70;;;15.20;99.90;;;;;;5037386;28;20041;-73
2022/10/03 09:39:46;;;;;;;7.82;1.27;;;15.20;99.90;;;;;;5052950;28;20040;-73
2022/10/03 09:42:49;;;;;;;8.57;1.70;;;15.30;99.90;;;;;;5036877;28;20091;-74
2022/10/03 09:45:15;;;;;;;11.80;1.50;;;15.40;99.90;;;;;;5066766;28;20045;-74
2022/10/03 09:48:05;;;;;;;6.78;1.27;;;15.50;99.90;;;;;;5067494;28;20403;-74
2022/10/03 09:50:58;;;;;;;8.25;0.95;;;15.50;99.90;;;;;;5052933;28;20052;-74
2022/10/03 09:53:53;;;;;;;7.20;1.08;;;15.60;99.90;;;;;;5056716;28;20045;-74
2022/10/03 09:56:52;;;;;;;7.97;1.38;;;15.60;99.90;;;;;;5064458;28;20553;-74
2022/10/03 09:59:26;;;;;;;7.68;1.58;;;15.50;99.90;;;;;;5051211;28;20576;-74
2022/10/03 10:02:25;;;;;;;6.55;1.20;;;15.50;99.90;;;;;;5048195;28;20049;-74
2022/10/03 10:05:10;;;;;;;10.48;1.48;;;15.50;99.90;;;;;;5034233;28;20045;-74
2022/10/03 10:07:44;;;;;;;11.77;1.30;;;15.50;99.90;;;;;;5031384;28;20064;-74
2022/10/03 10:10:55;;;;;;;8.98;1.23;;;15.60;99.90;;;;;;5050409;28;20040;-74
2022/10/03 10:13:59;;;;;;;4.85;0.90;;;15.60;99.90;;;;;;5057344;28;20094;-74
2022/10/03 10:16:43;;;;;;;7.80;1.27;;;15.70;99.90;;;;;;5014017;28;20446;-74
2022/10/03 10:19:17;;;;;;;4.93;1.45;;;15.70;99.90;;;;;;5066390;28;20459;-74
2022/10/03 10:21:49;;;;;;;5.57;1.02;;;15.80;99.90;;;;;;5083083;28;20052;-74
2022/10/03 10:24:50;;;;;;;4.97;0.90;;;15.90;99.90;;;;;;5079534;28;20490;-74
2022/10/03 10:27:51;;;;;;;7.95;1.85;;;15.90;99.90;;;;;;5050480;28;20194;-74
2022/10/03 10:30:33;;;;;;;6.18;1.15;;;15.90;99.90;;;;;;5027228;28;20080;-74
2022/10/03 10:33:37;;;;;;;10.90;1.15;;;15.90;99.90;;;;;;5051615;28;20116;-74
2022/10/03 10:36:43;;;;;;;7.50;1.08;;;16.00;99.90;;;;;;5033068;28;20037;-74
2022/10/03 10:39:29;;;;;;;6.35;1.00;;;16.00;99.90;;;;;;5031761;28;20044;-74
2022/10/03 10:42:13;;;;;;;6.20;0.93;;;16.00;99.90;;;;;;5065907;28;20112;-74
2022/10/03 10:45:14;;;;;;;7.50;1.00;;;16.00;99.90;;;;;;5039864;28;20505;-73
2022/10/03 10:48:01;;;;;;;5.65;1.10;;;15.90;99.90;;;;;;5082573;28;20119;-74
2022/10/03 10:51:03;;;;;;;7.00;1.45;;;15.90;99.90;;;;;;5067513;28;20135;-74
2022/10/03 10:54:07;;;;;;;7.03;1.33;;;15.90;99.90;;;;;;5050985;28;20036;-74
2022/10/03 10:57:04;;;;;;;9.18;1.33;;;15.90;99.90;;;;;;5068185;28;20125;-73
2022/10/03 10:59:51;;;;;;;6.15;1.20;;;15.90;99.90;;;;;;5050324;28;20099;-74
2022/10/03 11:02:36;;;;;;;6.88;1.38;;;15.90;99.90;;;;;;5050435;28;20037;-73
2022/10/03 11:05:58;;;;;;;4.60;0.90;;;15.80;99.90;;;;;;5029776;28;20380;-74
2022/10/03 11:09:05;;;;;;;6.90;1.20;;;15.90;99.90;;;;;;5032746;28;20045;-74
2022/10/03 11:11:51;;;;;;;6.30;1.02;;;15.80;99.90;;;;;;5064428;28;20115;-74
2022/10/03 11:14:45;;;;;;;4.43;0.93;;;15.80;99.90;;;;;;5068821;28;20089;-74
2022/10/03 11:17:36;;;;;;;7.93;1.27;;;15.80;99.90;;;;;;5060175;28;20077;-74
2022/10/03 11:20:02;;;;;;;5.57;1.10;;;15.80;99.90;;;;;;5049147;28;20132;-74
2022/10/03 11:22:56;;;;;;;6.35;1.08;;;15.80;99.90;;;;;;5079048;28;20136;-74
2022/10/03 11:26:19;;;;;;;4.78;1.08;;;15.90;99.90;;;;;;5048065;28;20052;-74
2022/10/03 11:29:41;;;;;;;6.38;1.42;;;15.90;99.90;;;;;;5044821;28;20124;-74
2022/10/03 11:32:23;;;;;;;4.20;0.90;;;15.80;99.90;;;;;;5070041;28;20044;-73
2022/10/03 11:35:00;;;;;;;4.40;1.15;;;15.80;99.90;;;;;;5051755;28;20044;-74
2022/10/03 11:37:44;;;;;;;7.70;1.15;;;15.80;99.90;;;;;;5068351;28;20116;-74
2022/10/03 11:40:43;;;;;;;7.60;1.10;;;15.80;99.90;;;;;;5049079;28;20033;-74
2022/10/03 11:43:39;;;;;;;6.95;1.20;;;15.90;99.90;;;;;;5056658;28;20044;-74
2022/10/03 11:46:26;;;;;;;6.22;1.13;;;15.90;99.90;;;;;;5048854;28;20115;-74
2022/10/03 11:48:55;;;;;;;5.70;1.13;;;15.90;99.90;;;;;;5078227;28;20336;-74
2022/10/03 11:51:29;;;;;;;4.47;0.80;;;15.90;99.90;;;;;;5057468;28;20098;-74
2022/10/03 11:54:19;;;;;;;7.15;1.13;;;16.00;99.90;;;;;;5049227;28;20064;-74
2022/10/03 11:56:50;;;;;;;5.85;1.10;;;16.00;99.90;;;;;;5050373;28;20104;-74
2022/10/03 11:59:32;;;;;;;7.72;1.05;;;16.00;99.90;;;;;;5041874;28;20040;-74
2022/10/03 12:02:05;;;;;;;4.85;0.70;;;16.00;99.90;;;;;;5050106;28;20045;-74
2022/10/03 12:04:49;;;;;;;5.97;1.60;;;16.10;99.90;;;;;;5054406;28;20047;-74
2022/10/03 12:10:31;;;;;;;6.90;1.38;;;16.20;99.90;;;;;;5051372;28;20491;-74
2022/10/03 12:12:58;;;;;;;9.55;1.58;;;16.20;99.90;;;;;;5050018;28;20036;-74
2022/10/03 12:15:44;;;;;;;8.95;1.33;;;16.20;99.90;;;;;;5055728;28;20115;-74
2022/10/03 12:18:33;;;;;;;10.90;2.03;;;16.30;99.90;;;;;;5071429;28;20037;-74
2022/10/03 12:21:27;;;;;;;4.32;1.02;;;16.40;99.90;;;;;;5067003;28;20083;-73
2022/10/03 12:24:03;;;;;;;7.70;1.55;;;16.50;99.90;;;;;;5033343;28;20045;-74
2022/10/03 12:26:59;;;;;;;8.95;2.10;;;16.50;99.90;;;;;;5065494;28;20033;-74
2022/10/03 12:29:28;;;;;;;7.40;1.20;;;16.60;99.90;;;;;;5049744;28;20054;-74
2022/10/03 12:32:04;;;;;;;4.22;1.05;;;16.60;99.90;;;;;;5050121;28;20036;-74
2022/10/03 12:34:48;;;;;;;7.72;1.23;;;16.60;99.90;;;;;;5048826;28;20095;-74
2022/10/03 12:37:17;;;;;;;6.63;1.77;;;16.50;99.90;;;;;;5079324;28;20112;-74
2022/10/03 12:40:09;;;;;;;4.70;0.98;;;16.50;99.90;;;;;;5066454;28;20041;-74
2022/10/03 12:42:34;;;;;;;;;;;16.50;99.90;;;;;;5066131;28;20167;-74
2022/10/03 12:45:28;;;;;;;9.15;1.55;;;16.50;99.90;;;;;;5036970;28;19999;-74
2022/10/03 12:47:54;;;;;;;10.30;1.42;;;16.50;99.90;;;;;;5049642;28;20190;-74
2022/10/03 12:50:26;;;;;;;4.25;0.90;;;16.60;99.90;;;;;;5036713;28;20120;-73
2022/10/03 12:53:14;;;;;;;6.15;1.13;;;16.60;99.90;;;;;;5056770;28;20048;-74
2022/10/03 12:56:11;;;;;;;6.90;1.08;;;16.70;99.90;;;;;;5069944;28;20051;-74
2022/10/03 12:58:39;;;;;;;5.75;1.00;;;16.70;99.90;;;;;;5051181;28;20052;-74
2022/10/03 13:01:16;;;;;;;3.90;0.80;;;16.60;99.90;;;;;;5068995;28;20055;-74
2022/10/03 13:04:07;;;;;;;6.03;1.05;;;16.60;99.90;;;;;;5054032;28;20095;-74
2022/10/03 13:07:02;;;;;;;5.97;1.02;;;16.60;99.90;;;;;;5071287;28;20616;-74
2022/10/03 13:09:46;;;;;;;5.35;1.20;;;16.50;99.90;;;;;;5069032;28;20048;-74
2022/10/03 13:12:21;;;;;;;7.18;1.20;;;16.50;99.90;;;;;;5038037;28;20479;-74
2022/10/03 13:15:25;;;;;;;9.00;1.23;;;16.40;99.90;;;;;;5054212;28;20033;-74
2022/10/03 13:18:24;;;;;;;6.30;1.27;;;16.30;99.90;;;;;;5021390;28;20121;-74
2022/10/03 13:21:13;;;;;;;4.78;0.95;;;16.30;99.90;;;;;;5033372;28;20072;-74
2022/10/03 13:23:56;;;;;;;6.00;1.10;;;16.30;99.90;;;;;;5048447;28;20041;-74
2022/10/03 13:26:47;;;;;;;8.02;0.88;;;16.30;99.90;;;;;;5047860;28;20041;-74
2022/10/03 13:29:13;;;;;;;5.83;1.20;;;16.40;99.90;;;;;;5044735;28;20473;-74
2022/10/03 13:32:07;;;;;;;6.47;1.05;;;16.30;99.90;;;;;;5087229;28;20124;-73
2022/10/03 13:34:53;;;;;;;5.63;1.20;;;16.30;99.90;;;;;;5058215;28;20066;-74
2022/10/03 13:37:59;;;;;;;6.05;1.20;;;16.40;99.90;;;;;;5052760;28;20390;-74
2022/10/03 13:40:32;;;;;;;6.80;1.30;;;16.30;99.90;;;;;;5046114;28;20052;-73
2022/10/03 13:43:01;;;;;;;6.80;1.33;;;16.20;99.90;;;;;;5053494;28;20037;-74
2022/10/03 13:45:29;;;;;;;6.95;1.10;;;16.20;99.90;;;;;;5066394;28;20041;-82
2022/10/03 13:48:03;;;;;;;7.18;1.30;;;16.20;99.90;;;;;;5052970;28;20037;-83
2022/10/03 13:50:38;;;;;;;7.00;1.33;;;16.20;99.90;;;;;;5037401;28;20052;-75
2022/10/03 13:53:38;;;;;;;5.28;1.02;;;16.10;99.90;;;;;;5053147;28;20040;-76
2022/10/03 13:56:17;;;;;;;6.38;1.08;;;16.10;99.90;;;;;;5034216;28;20491;-75
2022/10/03 13:59:18;;;;;;;5.72;1.10;;;16.20;99.90;;;;;;5069063;28;20045;-75
2022/10/03 14:01:46;;;;;;;6.70;1.02;;;16.30;99.90;;;;;;5035903;28;20558;-76
2022/10/03 14:04:33;;;;;;;7.68;1.38;;;16.30;99.90;;;;;;5067636;28;20068;-84
2022/10/03 14:07:17;;;;;;;5.57;1.30;;;16.30;99.90;;;;;;5084843;28;20080;-84
2022/10/03 14:09:46;;;;;;;5.03;0.95;;;16.20;99.90;;;;;;5067465;28;20451;-84
2022/10/03 14:12:43;;;;;;;5.82;1.10;;;16.20;99.90;;;;;;5051595;28;20497;-82
2022/10/03 14:15:17;;;;;;;6.03;1.10;;;16.20;99.90;;;;;;5035631;28;20037;-75
2022/10/03 14:17:58;;;;;;;6.43;1.20;;;16.10;99.90;;;;;;5050511;28;20502;-76
2022/10/03 14:20:48;;;;;;;4.38;1.00;;;16.10;99.90;;;;;;5068082;28;20040;-76
2022/10/03 14:23:42;;;;;;;6.47;1.13;;;16.10;99.90;;;;;;5067901;28;20037;-76
2022/10/03 14:26:34;;;;;;;6.05;1.00;;;16.10;99.90;;;;;;5033739;28;20491;-76
2022/10/03 14:29:25;;;;;;;6.40;1.15;;;16.10;99.90;;;;;;5058965;28;20562;-80
2022/10/03 14:32:08;;;;;;;9.27;1.15;;;16.10;99.90;;;;;;5065932;28;20037;-78
2022/10/03 14:34:51;;;;;;;5.30;1.48;;;16.10;99.90;;;;;;5066703;28;20395;-78
2022/10/03 14:37:29;;;;;;;6.13;1.35;;;16.10;99.90;;;;;;5034566;28;20037;-78